sensor_id;sensor_type;location;lat;lon;timestamp;temperature;humidity
39899;DHT22;25571;47.876;10.642;2023-04-06T00:00:51;0.00;91.20
39899;DHT22;25571;47.876;10.642;2023-04-06T00:03:18;0.00;91.20
39899;DHT22;25571;47.876;10.642;2023-04-06T00:05:44;-0.10;91.20
39899;DHT22;25571;47.876;10.642;2023-04-06T00:08:10;-0.20;91.10
39899;DHT22;25571;47.876;10.642;2023-04-06T00:10:36;-0.20;91.20
39899;DHT22;25571;47.876;10.642;2023-04-06T00:13:01;-0.10;91.10
39899;DHT22;25571;47.876;10.642;2023-04-06T00:15:27;-0.10;91.00
39899;DHT22;25571;47.876;10.642;2023-04-06T00:17:53;-0.20;91.00
39899;DHT22;25571;47.876;10.642;2023-04-06T00:20:18;-0.10;90.80
39899;DHT22;25571;47.876;10.642;2023-04-06T00:22:45;-0.20;90.70
39899;DHT22;25571;47.876;10.642;2023-04-06T00:25:10;-0.20;90.70
39899;DHT22;25571;47.876;10.642;2023-04-06T00:27:37;-0.20;90.80
39899;DHT22;25571;47.876;10.642;2023-04-06T00:30:04;-0.20;90.80
39899;DHT22;25571;47.876;10.642;2023-04-06T00:32:30;-0.20;90.80
39899;DHT22;25571;47.876;10.642;2023-04-06T00:34:56;-0.20;90.90
39899;DHT22;25571;47.876;10.642;2023-04-06T00:37:22;-0.30;91.20
39899;DHT22;25571;47.876;10.642;2023-04-06T00:39:47;-0.30;91.70
39899;DHT22;25571;47.876;10.642;2023-04-06T00:42:13;-0.30;91.80
39899;DHT22;25571;47.876;10.642;2023-04-06T00:44:42;-0.30;91.30
39899;DHT22;25571;47.876;10.642;2023-04-06T00:47:08;-0.30;91.30
39899;DHT22;25571;47.876;10.642;2023-04-06T00:49:34;-0.30;91.70
39899;DHT22;25571;47.876;10.642;2023-04-06T00:52:00;-0.30;91.80
39899;DHT22;25571;47.876;10.642;2023-04-06T00:54:27;-0.30;92.50
39899;DHT22;25571;47.876;10.642;2023-04-06T00:56:53;-0.20;92.90
39899;DHT22;25571;47.876;10.642;2023-04-06T00:59:18;-0.10;93.10
39899;DHT22;25571;47.876;10.642;2023-04-06T01:01:44;0.00;93.00
39899;DHT22;25571;47.876;10.642;2023-04-06T01:04:11;0.10;92.90
39899;DHT22;25571;47.876;10.642;2023-04-06T01:06:36;0.20;92.70
39899;DHT22;25571;47.876;10.642;2023-04-06T01:09:02;0.30;92.30
39899;DHT22;25571;47.876;10.642;2023-04-06T01:11:27;0.30;92.10
39899;DHT22;25571;47.876;10.642;2023-04-06T01:13:53;0.40;91.90
39899;DHT22;25571;47.876;10.642;2023-04-06T01:16:19;0.40;92.00
39899;DHT22;25571;47.876;10.642;2023-04-06T01:18:44;0.40;92.30
39899;DHT22;25571;47.876;10.642;2023-04-06T01:21:10;0.40;92.20
39899;DHT22;25571;47.876;10.642;2023-04-06T01:23:45;0.40;92.10
39899;DHT22;25571;47.876;10.642;2023-04-06T01:26:12;0.50;92.10
39899;DHT22;25571;47.876;10.642;2023-04-06T01:28:37;0.50;92.10
39899;DHT22;25571;47.876;10.642;2023-04-06T01:31:04;0.50;92.10
39899;DHT22;25571;47.876;10.642;2023-04-06T01:33:30;0.50;92.20
39899;DHT22;25571;47.876;10.642;2023-04-06T01:35:55;0.60;91.80
39899;DHT22;25571;47.876;10.642;2023-04-06T01:38:21;0.60;91.70
39899;DHT22;25571;47.876;10.642;2023-04-06T01:40:47;0.50;91.80
39899;DHT22;25571;47.876;10.642;2023-04-06T01:43:12;0.40;92.00
39899;DHT22;25571;47.876;10.642;2023-04-06T01:45:38;0.40;92.00
39899;DHT22;25571;47.876;10.642;2023-04-06T01:48:04;0.40;91.80
39899;DHT22;25571;47.876;10.642;2023-04-06T01:50:29;0.50;91.70
39899;DHT22;25571;47.876;10.642;2023-04-06T01:52:55;0.50;91.60
39899;DHT22;25571;47.876;10.642;2023-04-06T01:55:21;0.60;91.50
39899;DHT22;25571;47.876;10.642;2023-04-06T01:57:46;0.60;91.50
39899;DHT22;25571;47.876;10.642;2023-04-06T02:00:12;0.50;91.60
39899;DHT22;25571;47.876;10.642;2023-04-06T02:02:38;0.60;91.60
39899;DHT22;25571;47.876;10.642;2023-04-06T02:05:04;0.60;91.50
39899;DHT22;25571;47.876;10.642;2023-04-06T02:07:30;0.60;91.50
39899;DHT22;25571;47.876;10.642;2023-04-06T02:09:55;0.60;91.50
39899;DHT22;25571;47.876;10.642;2023-04-06T02:12:21;0.60;91.50
39899;DHT22;25571;47.876;10.642;2023-04-06T02:14:47;0.60;91.50
39899;DHT22;25571;47.876;10.642;2023-04-06T02:17:12;0.50;91.80
39899;DHT22;25571;47.876;10.642;2023-04-06T02:19:38;0.50;91.90
39899;DHT22;25571;47.876;10.642;2023-04-06T02:22:03;0.40;92.20
39899;DHT22;25571;47.876;10.642;2023-04-06T02:24:29;0.30;92.60
39899;DHT22;25571;47.876;10.642;2023-04-06T02:26:54;0.30;92.90
39899;DHT22;25571;47.876;10.642;2023-04-06T02:29:20;0.30;93.00
39899;DHT22;25571;47.876;10.642;2023-04-06T02:31:46;0.30;93.00
39899;DHT22;25571;47.876;10.642;2023-04-06T02:34:12;0.20;93.00
39899;DHT22;25571;47.876;10.642;2023-04-06T02:36:46;0.20;93.20
39899;DHT22;25571;47.876;10.642;2023-04-06T02:39:14;0.10;93.50
39899;DHT22;25571;47.876;10.642;2023-04-06T02:41:39;0.10;94.00
39899;DHT22;25571;47.876;10.642;2023-04-06T02:44:08;0.00;93.80
39899;DHT22;25571;47.876;10.642;2023-04-06T02:46:34;-0.10;93.80
39899;DHT22;25571;47.876;10.642;2023-04-06T02:49:00;-0.10;93.80
39899;DHT22;25571;47.876;10.642;2023-04-06T02:51:26;-0.20;94.20
39899;DHT22;25571;47.876;10.642;2023-04-06T02:53:52;-0.20;94.40
39899;DHT22;25571;47.876;10.642;2023-04-06T02:56:18;-0.20;94.50
39899;DHT22;25571;47.876;10.642;2023-04-06T02:58:44;-0.20;94.40
39899;DHT22;25571;47.876;10.642;2023-04-06T03:01:10;-0.30;94.70
39899;DHT22;25571;47.876;10.642;2023-04-06T03:03:35;-0.30;94.80
39899;DHT22;25571;47.876;10.642;2023-04-06T03:06:01;-0.30;95.10
39899;DHT22;25571;47.876;10.642;2023-04-06T03:08:26;-0.30;94.90
39899;DHT22;25571;47.876;10.642;2023-04-06T03:10:52;-0.40;94.80
39899;DHT22;25571;47.876;10.642;2023-04-06T03:13:17;-0.30;94.70
39899;DHT22;25571;47.876;10.642;2023-04-06T03:15:43;-0.30;94.70
39899;DHT22;25571;47.876;10.642;2023-04-06T03:18:09;-0.30;94.60
39899;DHT22;25571;47.876;10.642;2023-04-06T03:20:34;-0.30;94.40
39899;DHT22;25571;47.876;10.642;2023-04-06T03:23:00;-0.30;94.40
39899;DHT22;25571;47.876;10.642;2023-04-06T03:25:25;-0.30;94.30
39899;DHT22;25571;47.876;10.642;2023-04-06T03:27:51;-0.30;94.20
39899;DHT22;25571;47.876;10.642;2023-04-06T03:30:17;-0.30;94.30
39899;DHT22;25571;47.876;10.642;2023-04-06T03:32:43;-0.20;94.30
39899;DHT22;25571;47.876;10.642;2023-04-06T03:35:09;-0.20;94.30
39899;DHT22;25571;47.876;10.642;2023-04-06T03:37:35;-0.20;94.40
39899;DHT22;25571;47.876;10.642;2023-04-06T03:40:01;-0.10;94.50
39899;DHT22;25571;47.876;10.642;2023-04-06T03:42:27;0.00;94.40
39899;DHT22;25571;47.876;10.642;2023-04-06T03:44:52;0.10;94.50
39899;DHT22;25571;47.876;10.642;2023-04-06T03:47:18;0.10;94.30
39899;DHT22;25571;47.876;10.642;2023-04-06T03:49:43;0.10;94.30
39899;DHT22;25571;47.876;10.642;2023-04-06T03:52:09;0.10;94.20
39899;DHT22;25571;47.876;10.642;2023-04-06T03:54:35;0.10;94.30
39899;DHT22;25571;47.876;10.642;2023-04-06T03:57:01;0.10;94.10
39899;DHT22;25571;47.876;10.642;2023-04-06T03:59:27;0.00;94.20
39899;DHT22;25571;47.876;10.642;2023-04-06T04:01:52;-0.10;94.50
39899;DHT22;25571;47.876;10.642;2023-04-06T04:04:18;-0.20;95.00
39899;DHT22;25571;47.876;10.642;2023-04-06T04:06:44;-0.30;95.00
39899;DHT22;25571;47.876;10.642;2023-04-06T04:09:09;-0.30;95.30
39899;DHT22;25571;47.876;10.642;2023-04-06T04:11:35;-0.30;95.50
39899;DHT22;25571;47.876;10.642;2023-04-06T04:14:00;-0.30;95.40
39899;DHT22;25571;47.876;10.642;2023-04-06T04:16:26;-0.30;95.20
39899;DHT22;25571;47.876;10.642;2023-04-06T04:18:52;-0.30;95.10
39899;DHT22;25571;47.876;10.642;2023-04-06T04:21:17;-0.20;95.30
39899;DHT22;25571;47.876;10.642;2023-04-06T04:23:43;-0.20;95.10
39899;DHT22;25571;47.876;10.642;2023-04-06T04:26:08;-0.20;94.80
39899;DHT22;25571;47.876;10.642;2023-04-06T04:28:34;-0.10;94.70
39899;DHT22;25571;47.876;10.642;2023-04-06T04:31:00;-0.20;94.60
39899;DHT22;25571;47.876;10.642;2023-04-06T04:33:25;-0.20;95.00
39899;DHT22;25571;47.876;10.642;2023-04-06T04:35:51;-0.20;94.80
39899;DHT22;25571;47.876;10.642;2023-04-06T04:38:17;-0.20;95.10
39899;DHT22;25571;47.876;10.642;2023-04-06T04:40:42;-0.10;95.30
39899;DHT22;25571;47.876;10.642;2023-04-06T04:43:08;-0.10;95.30
39899;DHT22;25571;47.876;10.642;2023-04-06T04:45:34;0.00;95.20
39899;DHT22;25571;47.876;10.642;2023-04-06T04:47:59;0.10;95.20
39899;DHT22;25571;47.876;10.642;2023-04-06T04:50:25;-0.20;95.40
39899;DHT22;25571;47.876;10.642;2023-04-06T04:52:50;-0.10;95.70
39899;DHT22;25571;47.876;10.642;2023-04-06T04:55:16;0.00;95.90
39899;DHT22;25571;47.876;10.642;2023-04-06T04:57:43;0.00;95.90
39899;DHT22;25571;47.876;10.642;2023-04-06T05:00:09;0.10;95.70
39899;DHT22;25571;47.876;10.642;2023-04-06T05:02:34;0.10;95.60
39899;DHT22;25571;47.876;10.642;2023-04-06T05:05:00;0.10;95.80
39899;DHT22;25571;47.876;10.642;2023-04-06T05:07:26;0.20;95.80
39899;DHT22;25571;47.876;10.642;2023-04-06T05:09:52;0.20;95.80
39899;DHT22;25571;47.876;10.642;2023-04-06T05:12:18;0.30;95.80
39899;DHT22;25571;47.876;10.642;2023-04-06T05:14:44;0.40;95.90
39899;DHT22;25571;47.876;10.642;2023-04-06T05:17:10;0.50;95.90
39899;DHT22;25571;47.876;10.642;2023-04-06T05:19:36;0.40;95.80
39899;DHT22;25571;47.876;10.642;2023-04-06T05:22:02;0.40;95.60
39899;DHT22;25571;47.876;10.642;2023-04-06T05:24:27;0.50;95.90
39899;DHT22;25571;47.876;10.642;2023-04-06T05:26:54;0.50;95.90
39899;DHT22;25571;47.876;10.642;2023-04-06T05:29:19;0.60;95.90
39899;DHT22;25571;47.876;10.642;2023-04-06T05:31:45;0.60;95.80
39899;DHT22;25571;47.876;10.642;2023-04-06T05:34:11;0.80;95.80
39899;DHT22;25571;47.876;10.642;2023-04-06T05:36:38;0.80;95.70
39899;DHT22;25571;47.876;10.642;2023-04-06T05:39:04;1.00;95.80
39899;DHT22;25571;47.876;10.642;2023-04-06T05:41:29;1.10;95.60
39899;DHT22;25571;47.876;10.642;2023-04-06T05:43:55;1.10;95.60
39899;DHT22;25571;47.876;10.642;2023-04-06T05:46:21;1.20;95.70
39899;DHT22;25571;47.876;10.642;2023-04-06T05:48:46;1.30;95.50
39899;DHT22;25571;47.876;10.642;2023-04-06T05:51:12;1.30;95.70
39899;DHT22;25571;47.876;10.642;2023-04-06T05:53:38;1.30;95.80
39899;DHT22;25571;47.876;10.642;2023-04-06T05:56:04;1.40;95.80
39899;DHT22;25571;47.876;10.642;2023-04-06T05:58:30;1.50;95.90
39899;DHT22;25571;47.876;10.642;2023-04-06T06:01:02;1.50;95.20
39899;DHT22;25571;47.876;10.642;2023-04-06T06:03:28;1.70;95.10
39899;DHT22;25571;47.876;10.642;2023-04-06T06:06:00;1.70;94.90
39899;DHT22;25571;47.876;10.642;2023-04-06T06:08:26;1.80;94.80
39899;DHT22;25571;47.876;10.642;2023-04-06T06:10:51;1.90;94.40
39899;DHT22;25571;47.876;10.642;2023-04-06T06:13:17;2.00;94.30
39899;DHT22;25571;47.876;10.642;2023-04-06T06:15:43;2.10;94.10
39899;DHT22;25571;47.876;10.642;2023-04-06T06:18:08;2.10;93.90
39899;DHT22;25571;47.876;10.642;2023-04-06T06:20:34;2.10;94.20
39899;DHT22;25571;47.876;10.642;2023-04-06T06:22:59;2.20;94.50
39899;DHT22;25571;47.876;10.642;2023-04-06T06:25:25;2.30;93.70
39899;DHT22;25571;47.876;10.642;2023-04-06T06:27:51;2.40;93.40
39899;DHT22;25571;47.876;10.642;2023-04-06T06:30:17;2.50;93.70
39899;DHT22;25571;47.876;10.642;2023-04-06T06:32:42;2.60;93.60
39899;DHT22;25571;47.876;10.642;2023-04-06T06:35:08;2.80;93.70
39899;DHT22;25571;47.876;10.642;2023-04-06T06:37:34;2.90;93.50
39899;DHT22;25571;47.876;10.642;2023-04-06T06:39:59;3.00;93.50
39899;DHT22;25571;47.876;10.642;2023-04-06T06:42:25;3.10;93.60
39899;DHT22;25571;47.876;10.642;2023-04-06T06:44:51;3.30;93.30
39899;DHT22;25571;47.876;10.642;2023-04-06T06:47:17;3.50;93.20
39899;DHT22;25571;47.876;10.642;2023-04-06T06:49:42;3.80;92.60
39899;DHT22;25571;47.876;10.642;2023-04-06T06:52:08;4.30;91.60
39899;DHT22;25571;47.876;10.642;2023-04-06T06:54:33;4.80;90.70
39899;DHT22;25571;47.876;10.642;2023-04-06T06:56:59;5.10;90.30
39899;DHT22;25571;47.876;10.642;2023-04-06T06:59:25;5.70;89.40
39899;DHT22;25571;47.876;10.642;2023-04-06T07:01:51;6.40;87.00
39899;DHT22;25571;47.876;10.642;2023-04-06T07:04:17;7.10;84.60
39899;DHT22;25571;47.876;10.642;2023-04-06T07:06:42;7.40;81.80
39899;DHT22;25571;47.876;10.642;2023-04-06T07:09:08;7.90;78.50
39899;DHT22;25571;47.876;10.642;2023-04-06T07:11:34;8.70;75.50
39899;DHT22;25571;47.876;10.642;2023-04-06T07:13:59;9.20;72.30
39899;DHT22;25571;47.876;10.642;2023-04-06T07:16:25;9.50;69.30
39899;DHT22;25571;47.876;10.642;2023-04-06T07:18:51;9.40;67.70
39899;DHT22;25571;47.876;10.642;2023-04-06T07:21:16;9.30;68.70
39899;DHT22;25571;47.876;10.642;2023-04-06T07:23:42;9.60;66.50
39899;DHT22;25571;47.876;10.642;2023-04-06T07:26:07;9.90;66.00
39899;DHT22;25571;47.876;10.642;2023-04-06T07:28:33;10.30;64.50
39899;DHT22;25571;47.876;10.642;2023-04-06T07:30:59;10.40;61.90
39899;DHT22;25571;47.876;10.642;2023-04-06T07:33:24;10.30;62.50
39899;DHT22;25571;47.876;10.642;2023-04-06T07:35:52;10.60;61.60
39899;DHT22;25571;47.876;10.642;2023-04-06T07:38:18;13.70;56.70
39899;DHT22;25571;47.876;10.642;2023-04-06T07:40:44;15.30;51.80
39899;DHT22;25571;47.876;10.642;2023-04-06T07:43:09;20.00;43.40
39899;DHT22;25571;47.876;10.642;2023-04-06T07:45:35;23.60;37.50
39899;DHT22;25571;47.876;10.642;2023-04-06T07:48:01;26.80;31.10
39899;DHT22;25571;47.876;10.642;2023-04-06T07:50:26;29.00;27.60
39899;DHT22;25571;47.876;10.642;2023-04-06T07:52:52;31.30;26.00
39899;DHT22;25571;47.876;10.642;2023-04-06T07:55:18;31.00;24.00
39899;DHT22;25571;47.876;10.642;2023-04-06T07:57:43;29.10;25.90
39899;DHT22;25571;47.876;10.642;2023-04-06T08:00:10;25.90;27.70
39899;DHT22;25571;47.876;10.642;2023-04-06T08:02:36;27.00;28.00
39899;DHT22;25571;47.876;10.642;2023-04-06T08:05:01;31.20;25.80
39899;DHT22;25571;47.876;10.642;2023-04-06T08:07:27;33.50;22.90
39899;DHT22;25571;47.876;10.642;2023-04-06T08:09:53;34.90;22.20
39899;DHT22;25571;47.876;10.642;2023-04-06T08:12:18;36.60;21.30
39899;DHT22;25571;47.876;10.642;2023-04-06T08:14:44;38.90;20.00
39899;DHT22;25571;47.876;10.642;2023-04-06T08:17:10;39.80;18.60
39899;DHT22;25571;47.876;10.642;2023-04-06T08:19:36;42.10;19.10
39899;DHT22;25571;47.876;10.642;2023-04-06T08:22:02;43.00;18.50
39899;DHT22;25571;47.876;10.642;2023-04-06T08:24:28;40.50;17.40
39899;DHT22;25571;47.876;10.642;2023-04-06T08:26:53;39.60;17.80
39899;DHT22;25571;47.876;10.642;2023-04-06T08:29:19;41.90;18.10
39899;DHT22;25571;47.876;10.642;2023-04-06T08:31:45;42.10;17.00
39899;DHT22;25571;47.876;10.642;2023-04-06T08:34:10;44.30;16.60
39899;DHT22;25571;47.876;10.642;2023-04-06T08:36:36;37.70;17.40
39899;DHT22;25571;47.876;10.642;2023-04-06T08:39:02;39.80;17.60
39899;DHT22;25571;47.876;10.642;2023-04-06T08:41:27;41.70;17.80
39899;DHT22;25571;47.876;10.642;2023-04-06T08:46:23;41.10;15.90
39899;DHT22;25571;47.876;10.642;2023-04-06T08:48:55;43.20;16.50
39899;DHT22;25571;47.876;10.642;2023-04-06T08:51:22;46.20;16.20
39899;DHT22;25571;47.876;10.642;2023-04-06T08:53:49;47.20;15.90
39899;DHT22;25571;47.876;10.642;2023-04-06T08:56:15;47.30;15.40
39899;DHT22;25571;47.876;10.642;2023-04-06T08:58:41;47.90;14.80
39899;DHT22;25571;47.876;10.642;2023-04-06T09:01:09;48.50;15.00
39899;DHT22;25571;47.876;10.642;2023-04-06T09:03:40;48.70;14.40
39899;DHT22;25571;47.876;10.642;2023-04-06T09:06:06;50.40;14.50
39899;DHT22;25571;47.876;10.642;2023-04-06T09:08:38;47.20;13.50
39899;DHT22;25571;47.876;10.642;2023-04-06T09:11:04;40.60;14.80
39899;DHT22;25571;47.876;10.642;2023-04-06T09:13:30;35.30;17.50
39899;DHT22;25571;47.876;10.642;2023-04-06T09:16:03;31.60;19.60
39899;DHT22;25571;47.876;10.642;2023-04-06T09:18:33;34.60;18.90
39899;DHT22;25571;47.876;10.642;2023-04-06T09:21:04;32.70;18.20
39899;DHT22;25571;47.876;10.642;2023-04-06T09:23:30;28.60;20.90
39899;DHT22;25571;47.876;10.642;2023-04-06T09:26:15;30.20;21.50
39899;DHT22;25571;47.876;10.642;2023-04-06T09:28:48;30.00;20.00
39899;DHT22;25571;47.876;10.642;2023-04-06T09:31:16;26.40;21.90
39899;DHT22;25571;47.876;10.642;2023-04-06T09:33:45;24.30;25.00
39899;DHT22;25571;47.876;10.642;2023-04-06T09:36:11;23.20;25.40
39899;DHT22;25571;47.876;10.642;2023-04-06T09:38:38;21.60;26.50
39899;DHT22;25571;47.876;10.642;2023-04-06T09:41:04;22.60;26.60
39899;DHT22;25571;47.876;10.642;2023-04-06T09:43:30;21.70;27.30
39899;DHT22;25571;47.876;10.642;2023-04-06T09:45:56;20.70;28.10
39899;DHT22;25571;47.876;10.642;2023-04-06T09:48:24;21.10;28.80
39899;DHT22;25571;47.876;10.642;2023-04-06T09:50:53;21.20;27.80
39899;DHT22;25571;47.876;10.642;2023-04-06T09:53:26;21.40;28.00
39899;DHT22;25571;47.876;10.642;2023-04-06T09:55:57;21.20;27.90
39899;DHT22;25571;47.876;10.642;2023-04-06T09:58:33;20.70;29.50
39899;DHT22;25571;47.876;10.642;2023-04-06T10:01:07;19.80;28.90
39899;DHT22;25571;47.876;10.642;2023-04-06T10:06:11;19.00;30.90
39899;DHT22;25571;47.876;10.642;2023-04-06T10:08:38;18.80;31.20
39899;DHT22;25571;47.876;10.642;2023-04-06T10:11:07;18.10;31.00
39899;DHT22;25571;47.876;10.642;2023-04-06T10:13:33;17.40;32.00
39899;DHT22;25571;47.876;10.642;2023-04-06T10:16:00;16.90;32.60
39899;DHT22;25571;47.876;10.642;2023-04-06T10:18:27;16.40;33.70
39899;DHT22;25571;47.876;10.642;2023-04-06T10:21:07;15.90;34.60
39899;DHT22;25571;47.876;10.642;2023-04-06T10:26:00;15.10;36.20
39899;DHT22;25571;47.876;10.642;2023-04-06T10:28:31;15.10;36.00
39899;DHT22;25571;47.876;10.642;2023-04-06T10:30:59;14.90;36.40
39899;DHT22;25571;47.876;10.642;2023-04-06T10:33:25;14.40;37.50
39899;DHT22;25571;47.876;10.642;2023-04-06T10:35:50;14.10;37.90
39899;DHT22;25571;47.876;10.642;2023-04-06T10:38:16;14.00;37.80
39899;DHT22;25571;47.876;10.642;2023-04-06T10:40:46;13.80;38.30
39899;DHT22;25571;47.876;10.642;2023-04-06T10:43:21;14.00;39.40
39899;DHT22;25571;47.876;10.642;2023-04-06T10:45:57;14.20;38.30
39899;DHT22;25571;47.876;10.642;2023-04-06T10:48:23;14.40;39.30
39899;DHT22;25571;47.876;10.642;2023-04-06T10:50:51;14.30;38.80
39899;DHT22;25571;47.876;10.642;2023-04-06T10:53:25;14.20;37.70
39899;DHT22;25571;47.876;10.642;2023-04-06T10:55:52;13.90;37.90
39899;DHT22;25571;47.876;10.642;2023-04-06T10:58:18;13.90;37.20
39899;DHT22;25571;47.876;10.642;2023-04-06T11:00:45;14.00;37.80
39899;DHT22;25571;47.876;10.642;2023-04-06T11:03:11;14.20;39.40
39899;DHT22;25571;47.876;10.642;2023-04-06T11:05:37;14.20;37.00
39899;DHT22;25571;47.876;10.642;2023-04-06T11:08:03;14.10;37.40
39899;DHT22;25571;47.876;10.642;2023-04-06T11:10:28;13.70;39.10
39899;DHT22;25571;47.876;10.642;2023-04-06T11:12:56;13.40;38.20
39899;DHT22;25571;47.876;10.642;2023-04-06T11:15:22;13.60;36.90
39899;DHT22;25571;47.876;10.642;2023-04-06T11:17:48;13.40;37.20
39899;DHT22;25571;47.876;10.642;2023-04-06T11:20:14;13.10;36.90
39899;DHT22;25571;47.876;10.642;2023-04-06T11:22:53;13.00;37.40
39899;DHT22;25571;47.876;10.642;2023-04-06T11:25:19;13.10;38.30
39899;DHT22;25571;47.876;10.642;2023-04-06T11:27:47;13.20;35.90
39899;DHT22;25571;47.876;10.642;2023-04-06T11:30:14;13.60;36.50
39899;DHT22;25571;47.876;10.642;2023-04-06T11:32:44;13.70;38.50
39899;DHT22;25571;47.876;10.642;2023-04-06T11:35:29;13.90;38.40
39899;DHT22;25571;47.876;10.642;2023-04-06T11:37:56;14.00;38.50
39899;DHT22;25571;47.876;10.642;2023-04-06T11:40:22;13.90;38.10
39899;DHT22;25571;47.876;10.642;2023-04-06T11:42:55;14.00;36.50
39899;DHT22;25571;47.876;10.642;2023-04-06T11:45:22;13.70;37.40
39899;DHT22;25571;47.876;10.642;2023-04-06T11:47:56;13.50;36.50
39899;DHT22;25571;47.876;10.642;2023-04-06T11:50:23;13.40;36.20
39899;DHT22;25571;47.876;10.642;2023-04-06T11:52:58;13.30;38.80
39899;DHT22;25571;47.876;10.642;2023-04-06T11:55:24;13.30;39.30
39899;DHT22;25571;47.876;10.642;2023-04-06T11:57:50;13.30;39.40
39899;DHT22;25571;47.876;10.642;2023-04-06T12:00:17;13.40;40.70
39899;DHT22;25571;47.876;10.642;2023-04-06T12:02:46;13.30;40.30
39899;DHT22;25571;47.876;10.642;2023-04-06T12:05:12;13.20;39.70
39899;DHT22;25571;47.876;10.642;2023-04-06T12:07:37;13.20;39.20
39899;DHT22;25571;47.876;10.642;2023-04-06T12:10:04;13.20;39.50
39899;DHT22;25571;47.876;10.642;2023-04-06T12:12:30;13.10;39.10
39899;DHT22;25571;47.876;10.642;2023-04-06T12:14:56;12.80;37.90
39899;DHT22;25571;47.876;10.642;2023-04-06T12:17:22;12.70;39.60
39899;DHT22;25571;47.876;10.642;2023-04-06T12:19:48;12.80;40.40
39899;DHT22;25571;47.876;10.642;2023-04-06T12:22:14;13.00;39.50
39899;DHT22;25571;47.876;10.642;2023-04-06T12:24:40;13.10;39.30
39899;DHT22;25571;47.876;10.642;2023-04-06T12:27:06;13.10;40.30
39899;DHT22;25571;47.876;10.642;2023-04-06T12:29:32;13.20;39.30
39899;DHT22;25571;47.876;10.642;2023-04-06T12:31:57;13.20;42.00
39899;DHT22;25571;47.876;10.642;2023-04-06T12:34:23;13.20;41.90
39899;DHT22;25571;47.876;10.642;2023-04-06T12:36:48;13.20;42.30
39899;DHT22;25571;47.876;10.642;2023-04-06T12:39:15;13.00;41.20
39899;DHT22;25571;47.876;10.642;2023-04-06T12:41:42;12.90;40.00
39899;DHT22;25571;47.876;10.642;2023-04-06T12:44:07;12.90;40.80
39899;DHT22;25571;47.876;10.642;2023-04-06T12:46:33;12.80;40.40
39899;DHT22;25571;47.876;10.642;2023-04-06T12:48:59;13.10;41.60
39899;DHT22;25571;47.876;10.642;2023-04-06T12:51:27;13.40;39.30
39899;DHT22;25571;47.876;10.642;2023-04-06T12:53:53;13.00;40.30
39899;DHT22;25571;47.876;10.642;2023-04-06T12:56:19;13.00;41.40
39899;DHT22;25571;47.876;10.642;2023-04-06T12:58:46;12.90;40.70
39899;DHT22;25571;47.876;10.642;2023-04-06T13:01:12;12.80;41.80
39899;DHT22;25571;47.876;10.642;2023-04-06T13:03:42;12.50;41.60
39899;DHT22;25571;47.876;10.642;2023-04-06T13:06:08;12.40;41.00
39899;DHT22;25571;47.876;10.642;2023-04-06T13:08:34;12.40;42.30
39899;DHT22;25571;47.876;10.642;2023-04-06T13:11:00;12.40;42.30
39899;DHT22;25571;47.876;10.642;2023-04-06T13:13:28;12.50;41.30
39899;DHT22;25571;47.876;10.642;2023-04-06T13:15:54;12.50;41.20
39899;DHT22;25571;47.876;10.642;2023-04-06T13:18:23;12.50;40.30
39899;DHT22;25571;47.876;10.642;2023-04-06T13:20:48;12.70;41.70
39899;DHT22;25571;47.876;10.642;2023-04-06T13:23:14;12.60;38.70
39899;DHT22;25571;47.876;10.642;2023-04-06T13:25:41;12.70;41.20
39899;DHT22;25571;47.876;10.642;2023-04-06T13:28:07;12.80;37.30
39899;DHT22;25571;47.876;10.642;2023-04-06T13:30:33;12.70;38.40
39899;DHT22;25571;47.876;10.642;2023-04-06T13:32:59;12.80;39.90
39899;DHT22;25571;47.876;10.642;2023-04-06T13:35:25;12.80;39.50
39899;DHT22;25571;47.876;10.642;2023-04-06T13:37:50;12.70;40.10
39899;DHT22;25571;47.876;10.642;2023-04-06T13:40:17;12.60;39.80
39899;DHT22;25571;47.876;10.642;2023-04-06T13:42:43;12.60;39.90
39899;DHT22;25571;47.876;10.642;2023-04-06T13:45:10;12.50;40.80
39899;DHT22;25571;47.876;10.642;2023-04-06T13:47:36;12.50;40.30
39899;DHT22;25571;47.876;10.642;2023-04-06T13:50:02;12.30;39.00
39899;DHT22;25571;47.876;10.642;2023-04-06T13:52:29;12.30;39.10
39899;DHT22;25571;47.876;10.642;2023-04-06T13:54:54;12.40;40.80
39899;DHT22;25571;47.876;10.642;2023-04-06T13:57:20;12.30;40.40
39899;DHT22;25571;47.876;10.642;2023-04-06T13:59:45;12.30;41.00
39899;DHT22;25571;47.876;10.642;2023-04-06T14:02:11;11.90;41.00
39899;DHT22;25571;47.876;10.642;2023-04-06T14:04:37;12.30;39.50
39899;DHT22;25571;47.876;10.642;2023-04-06T14:07:03;12.10;38.20
39899;DHT22;25571;47.876;10.642;2023-04-06T14:09:29;12.10;38.70
39899;DHT22;25571;47.876;10.642;2023-04-06T14:11:56;12.20;40.70
39899;DHT22;25571;47.876;10.642;2023-04-06T14:14:22;12.40;41.50
39899;DHT22;25571;47.876;10.642;2023-04-06T14:16:48;12.20;41.30
39899;DHT22;25571;47.876;10.642;2023-04-06T14:19:15;12.00;41.90
39899;DHT22;25571;47.876;10.642;2023-04-06T14:21:46;12.00;42.40
39899;DHT22;25571;47.876;10.642;2023-04-06T14:24:12;11.90;41.70
39899;DHT22;25571;47.876;10.642;2023-04-06T14:26:39;11.70;41.80
39899;DHT22;25571;47.876;10.642;2023-04-06T14:29:07;11.90;42.70
39899;DHT22;25571;47.876;10.642;2023-04-06T14:31:32;11.90;42.90
39899;DHT22;25571;47.876;10.642;2023-04-06T14:34:00;11.90;42.80
39899;DHT22;25571;47.876;10.642;2023-04-06T14:36:26;12.10;42.30
39899;DHT22;25571;47.876;10.642;2023-04-06T14:39:02;12.10;42.20
39899;DHT22;25571;47.876;10.642;2023-04-06T14:41:30;12.20;41.00
39899;DHT22;25571;47.876;10.642;2023-04-06T14:43:56;12.00;41.10
39899;DHT22;25571;47.876;10.642;2023-04-06T14:46:22;11.90;40.50
39899;DHT22;25571;47.876;10.642;2023-04-06T14:48:47;11.60;39.90
39899;DHT22;25571;47.876;10.642;2023-04-06T14:51:13;11.70;42.00
39899;DHT22;25571;47.876;10.642;2023-04-06T14:53:39;11.90;41.90
39899;DHT22;25571;47.876;10.642;2023-04-06T14:56:05;11.60;41.20
39899;DHT22;25571;47.876;10.642;2023-04-06T14:58:31;11.60;40.90
39899;DHT22;25571;47.876;10.642;2023-04-06T15:00:57;11.50;39.60
39899;DHT22;25571;47.876;10.642;2023-04-06T15:03:24;11.60;40.50
39899;DHT22;25571;47.876;10.642;2023-04-06T15:05:51;11.50;41.50
39899;DHT22;25571;47.876;10.642;2023-04-06T15:08:17;11.80;40.40
39899;DHT22;25571;47.876;10.642;2023-04-06T15:10:49;11.60;40.50
39899;DHT22;25571;47.876;10.642;2023-04-06T15:13:15;11.50;40.50
39899;DHT22;25571;47.876;10.642;2023-04-06T15:15:41;11.40;41.20
39899;DHT22;25571;47.876;10.642;2023-04-06T15:18:07;11.30;42.00
39899;DHT22;25571;47.876;10.642;2023-04-06T15:20:33;11.20;41.70
39899;DHT22;25571;47.876;10.642;2023-04-06T15:23:00;11.30;41.60